Ikan Jebuh — 3EWQ7 — position and weather

sailwx.info

Track history (hours):
 
Tides and Currents Weather Stations Pressure Air Temp Water Temp Dewpoint Dewpoint Depression Visibility Wind Speed Wind Dir Waves Ship Positions

Ikan Jebuh

Last reported at 2018-Feb-23 02:29 UTC. Time now 2018-Feb-23 02:45 UTC.
Position N 48°57' W 123°37'.

Length 177 m; draft 6.9 m.

Type: Cargo ship. MMSI: 354953000.

Date/timePositionNaut miles runAvg speedWind from/ knotsBaromVisibWave heightAir tempDewpointWater temp
2018-Feb-23 02:29N 48°57' W 123°37'0 0.0
2018-Feb-23 01:59N 48°57' W 123°37'0 0.0
2018-Feb-23 01:30N 48°57' W 123°37'1 2.0
2018-Feb-23 01:00N 48°57' W 123°35'4 8.7
2018-Feb-23 00:30N 48°55' W 123°30'510.1
2018-Feb-23 00:00N 48°51' W 123°24'611.3
2018-Feb-22 23:30N 48°47' W 123°20'713.9
2018-Feb-22 23:00N 48°40' W 123°15'611.4
2018-Feb-22 22:30N 48°35' W 123°13'510.7
2018-Feb-22 22:00N 48°30' W 123°11'510.0
2018-Feb-22 21:30N 48°25' W 123°11'611.0
2018-Feb-22 21:00N 48°22' W 123°19'16 8.5
2018-Feb-22 19:04N 48°14' W 123°40'410.4
2018-Feb-22 18:42N 48°13' W 123°45'410.6
2018-Feb-22 18:19N 48°14' W 123°52'410.4
2018-Feb-22 17:56N 48°14' W 123°57'4 9.7
2018-Feb-22 17:30N 48°16' W 124°03'510.7
2018-Feb-22 17:00N 48°18' W 124°11'511.0
2018-Feb-22 16:30N 48°20' W 124°18'510.9
2018-Feb-22 16:00N 48°23' W 124°25'611.1
2018-Feb-22 15:30N 48°25' W 124°33'611.0
2018-Feb-22 14:58N 48°28' W 124°41'510.6
2018-Feb-22 14:30N 48°28' W 124°48'510.8
2018-Feb-22 14:00N 48°28' W 124°57'510.1
2018-Feb-22 13:30N 48°28' W 125°04'611.2
2018-Feb-22 13:00N 48°28' W 125°13'611.3
2018-Feb-22 12:30N 48°29' W 125°21'511.0
2018-Feb-22 12:00N 48°29' W 125°29'510.3
2018-Feb-22 11:30N 48°29' W 125°37'510.1
2018-Feb-22 10:59N 48°28' W 125°45'510.3
2018-Feb-22 10:30N 48°28' W 125°52'510.7
2018-Feb-22 10:00N 48°29' W 126°01'511.0
2018-Feb-22 09:30N 48°28' W 126°09'510.6
2018-Feb-22 09:00N 48°29' W 126°17'140 5.5
2018-Feb-21 07:42N 46°13' W 125°27'311.8
2018-Feb-21 07:28N 46°13' W 125°23'1111.7
2018-Feb-21 06:32N 46°13' W 125°07'011.4
2018-Feb-21 06:30N 46°13' W 125°06'612.5
2018-Feb-21 06:00N 46°12' W 124°57'713.1
2018-Feb-21 05:30N 46°12' W 124°48'713.6
2018-Feb-21 05:00N 46°12' W 124°38'713.5
2018-Feb-21 04:30N 46°12' W 124°28'713.5
2018-Feb-21 04:00N 46°12' W 124°19'713.1
2018-Feb-21 03:30N 46°12' W 124°09'612.1
2018-Feb-21 03:01N 46°16' W 124°03'715.0
2018-Feb-21 02:31N 46°11' W 123°54'5 9.9
2018-Feb-21 02:00N 46°13' W 123°47'713.2
2018-Feb-21 01:30N 46°16' W 123°38'713.3
2018-Feb-21 01:01N 46°16' W 123°28'612.2
2018-Feb-21 00:31N 46°11' W 123°25'611.2
2018-Feb-21 00:00N 46°09' W 123°18'714.0
2018-Feb-20 23:31N 46°11' W 123°08'714.3
2018-Feb-20 23:00N 46°07' W 122°60'711.9
2018-Feb-20 22:23N 46°02' W 122°53'411.5
2018-Feb-20 22:00N 45°58' W 122°50'713.5
2018-Feb-20 21:30N 45°52' W 122°47'714.2
2018-Feb-20 21:00N 45°45' W 122°46'612.5
2018-Feb-20 20:30N 45°38' W 122°47'4 7.3
2018-Feb-20 20:01N 45°35' W 122°45'4 8.2
2018-Feb-20 19:30N 45°32' W 122°41'0 0.1
2018-Feb-20 18:33N 45°32' W 122°41'0 0.0
2018-Feb-20 18:30N 45°32' W 122°41'0 0.0
2018-Feb-20 17:57N 45°32' W 122°41'0 0.0
2018-Feb-20 17:30N 45°32' W 122°41'0 0.0
2018-Feb-20 17:00N 45°32' W 122°41'0 0.0
2018-Feb-20 16:24N 45°32' W 122°41'0 0.0
2018-Feb-20 15:57N 45°32' W 122°41'0 0.0
2018-Feb-20 15:24N 45°32' W 122°41'0 0.0
2018-Feb-20 14:57N 45°32' W 122°41'0 0.0
2018-Feb-20 14:30N 45°32' W 122°41'0 0.0
2018-Feb-20 13:57N 45°32' W 122°41'0 0.0
2018-Feb-20 13:30N 45°32' W 122°41'0 0.0
2018-Feb-20 12:57N 45°32' W 122°41'0 0.0
2018-Feb-20 12:30N 45°32' W 122°41'0 0.0
2018-Feb-20 11:57N 45°32' W 122°41'0 0.0
2018-Feb-20 11:18N 45°32' W 122°41'0 0.0
2018-Feb-20 11:00N 45°32' W 122°41'0 0.0
2018-Feb-20 10:27N 45°32' W 122°41'0 0.0
2018-Feb-20 10:00N 45°32' W 122°41'0 0.0
2018-Feb-20 09:24N 45°32' W 122°41'0 0.0
2018-Feb-20 09:00N 45°32' W 122°41'0 0.0
2018-Feb-20 08:27N 45°32' W 122°41'0 0.0
2018-Feb-20 08:00N 45°32' W 122°41'0 0.0
2018-Feb-20 07:24N 45°32' W 122°41'0 0.0
2018-Feb-20 07:00N 45°32' W 122°41'0 0.0
2018-Feb-20 06:30N 45°32' W 122°41'0 0.0
2018-Feb-20 06:00N 45°32' W 122°41'0 0.0
2018-Feb-20 05:30N 45°32' W 122°41'0 0.0
2018-Feb-20 05:00N 45°32' W 122°41'0 0.0
2018-Feb-20 04:18N 45°32' W 122°41'0 0.0
2018-Feb-20 03:57N 45°32' W 122°41'0 0.0
2018-Feb-20 03:30N 45°32' W 122°41'0 0.0
2018-Feb-20 03:00N 45°32' W 122°41'0 0.0
2018-Feb-20 02:30N 45°32' W 122°41'0 0.0
2018-Feb-20 01:51N 45°32' W 122°41'0 0.0
2018-Feb-20 01:24N 45°32' W 122°41'0 0.0
2018-Feb-20 01:00N 45°32' W 122°41'0 0.0
2018-Feb-20 00:27N 45°32' W 122°41'0 0.0
2018-Feb-20 00:00N 45°32' W 122°41'0 0.0
2018-Feb-19 23:30N 45°32' W 122°41'0 0.0
2018-Feb-19 22:57N 45°32' W 122°41'0 0.0
2018-Feb-19 22:30N 45°32' W 122°41'0 0.0
2018-Feb-19 22:00N 45°32' W 122°41'0 0.0
2018-Feb-19 21:24N 45°32' W 122°41'0 0.0
2018-Feb-19 21:00N 45°32' W 122°41'0 0.0
2018-Feb-19 20:30N 45°32' W 122°41'0 0.0
2018-Feb-19 20:00N 45°32' W 122°41'0 0.0
2018-Feb-19 18:54N 45°32' W 122°41'0 0.0
2018-Feb-19 18:09N 45°32' W 122°41'0 0.0
2018-Feb-19 17:51N 45°32' W 122°41'0 0.0
2018-Feb-19 17:30N 45°32' W 122°41'0 0.0
2018-Feb-19 16:57N 45°32' W 122°41'0 0.0
2018-Feb-19 16:24N 45°32' W 122°41'0 0.0
2018-Feb-19 15:57N 45°32' W 122°41'0 0.0
2018-Feb-19 15:27N 45°32' W 122°41'0 0.0
2018-Feb-19 14:57N 45°32' W 122°41'0 0.0
2018-Feb-19 14:27N 45°32' W 122°41'0 0.0
2018-Feb-19 14:00N 45°32' W 122°41'0 0.0
2018-Feb-19 13:27N 45°32' W 122°41'0 0.0
2018-Feb-19 13:00N 45°32' W 122°41'0 0.0
2018-Feb-19 12:30N 45°32' W 122°41'0 0.0
2018-Feb-19 12:00N 45°32' W 122°41'0 0.0
2018-Feb-19 10:45N 45°32' W 122°41'0 0.0
2018-Feb-19 10:21N 45°32' W 122°41'0 0.0
2018-Feb-19 09:57N 45°32' W 122°41'0 0.0
2018-Feb-19 09:03N 45°32' W 122°41'0 0.0
2018-Feb-19 09:00N 45°32' W 122°41'0 0.0
2018-Feb-19 08:06N 45°32' W 122°41'0 0.0
2018-Feb-19 07:30N 45°32' W 122°41'0 0.0
2018-Feb-19 06:30N 45°32' W 122°41'0 0.0
2018-Feb-19 05:57N 45°32' W 122°41'0 0.0
2018-Feb-19 05:18N 45°32' W 122°41'0 0.0
2018-Feb-19 05:00N 45°32' W 122°41'0 0.0
2018-Feb-19 04:27N 45°32' W 122°41'0 0.0
2018-Feb-19 03:57N 45°32' W 122°41'0 0.0
2018-Feb-19 03:30N 45°32' W 122°41'0 0.0
2018-Feb-19 03:00N 45°32' W 122°41'0 0.0
2018-Feb-19 02:30N 45°32' W 122°41'0 0.0
2018-Feb-19 01:51N 45°32' W 122°41'0 0.0
2018-Feb-19 01:27N 45°32' W 122°41'0 0.0
2018-Feb-19 01:00N 45°32' W 122°41'0 0.0
2018-Feb-19 00:30N 45°32' W 122°41'0 0.0
2018-Feb-19 00:00N 45°32' W 122°41'0 0.0
2018-Feb-18 23:27N 45°32' W 122°41'0 0.0
2018-Feb-18 23:00N 45°32' W 122°41'0 0.0
2018-Feb-18 22:27N 45°32' W 122°41'0 0.0
2018-Feb-18 22:00N 45°32' W 122°41'0 0.0
2018-Feb-18 21:27N 45°32' W 122°41'0 0.0
2018-Feb-18 21:00N 45°32' W 122°41'0 0.0
2018-Feb-18 20:30N 45°32' W 122°41'0 0.0
2018-Feb-18 20:00N 45°32' W 122°41'0 0.0
2018-Feb-18 19:21N 45°32' W 122°41'0 0.0
2018-Feb-18 19:00N 45°32' W 122°41'0 0.0
2018-Feb-18 18:30N 45°32' W 122°41'0 0.0
2018-Feb-18 17:57N 45°32' W 122°41'0 0.0
2018-Feb-18 17:27N 45°32' W 122°41'0 0.0
2018-Feb-18 16:57N 45°32' W 122°41'0 0.0
2018-Feb-18 16:30N 45°32' W 122°41'0 0.0
2018-Feb-18 16:00N 45°32' W 122°41'0 0.0
2018-Feb-18 15:30N 45°32' W 122°41'0 0.0
2018-Feb-18 15:00N 45°32' W 122°41'0 0.0
2018-Feb-18 14:30N 45°32' W 122°41'0 0.0
2018-Feb-18 14:00N 45°32' W 122°41'0 0.0
2018-Feb-18 13:30N 45°32' W 122°41'0 0.0
2018-Feb-18 13:00N 45°32' W 122°41'0 0.0
2018-Feb-18 12:30N 45°32' W 122°41'0 0.0
2018-Feb-18 12:00N 45°32' W 122°41'0 0.0
2018-Feb-18 11:27N 45°32' W 122°41'0 0.0
2018-Feb-18 11:00N 45°32' W 122°41'0 0.0
2018-Feb-18 10:30N 45°32' W 122°41'0 0.0
2018-Feb-18 09:48N 45°32' W 122°41'0 0.0
2018-Feb-18 09:27N 45°32' W 122°41'0 0.0
2018-Feb-18 08:57N 45°32' W 122°41'0 0.0
2018-Feb-18 08:24N 45°32' W 122°41'0 0.0
2018-Feb-18 07:51N 45°32' W 122°41'0 0.0
2018-Feb-18 07:27N 45°32' W 122°41'0 0.0
2018-Feb-18 06:51N 45°32' W 122°41'0 0.0
2018-Feb-18 06:30N 45°32' W 122°41'0 0.0
2018-Feb-18 06:00N 45°32' W 122°41'0 0.0
2018-Feb-18 05:30N 45°32' W 122°41'0 0.0
2018-Feb-18 04:57N 45°32' W 122°41'0 0.0
2018-Feb-18 04:27N 45°32' W 122°41'0 0.0
2018-Feb-18 04:00N 45°32' W 122°41'0 0.0
2018-Feb-18 03:24N 45°32' W 122°41'0 0.0
2018-Feb-18 02:57N 45°32' W 122°41'0 0.0
2018-Feb-18 02:30N 45°32' W 122°41'0 0.0
2018-Feb-18 01:57N 45°32' W 122°41'0 0.0
2018-Feb-18 01:30N 45°32' W 122°41'0 0.0
2018-Feb-18 00:57N 45°32' W 122°41'0 0.0
2018-Feb-18 00:09N 45°32' W 122°41'0 0.0
2018-Feb-17 23:48N 45°32' W 122°41'0 0.0
2018-Feb-17 23:30N 45°32' W 122°41'0 0.0
2018-Feb-17 23:00N 45°32' W 122°41'0 0.0
2018-Feb-17 22:30N 45°32' W 122°41'0 0.0
2018-Feb-17 22:00N 45°32' W 122°41'0 0.0
2018-Feb-17 21:30N 45°32' W 122°41'0 0.0
2018-Feb-17 21:00N 45°32' W 122°41'0 0.0
2018-Feb-17 20:30N 45°32' W 122°41'0 0.0
2018-Feb-17 20:00N 45°32' W 122°41'0 0.0
2018-Feb-17 19:30N 45°32' W 122°41'0 0.0
2018-Feb-17 19:00N 45°32' W 122°41'0 0.0
2018-Feb-17 18:30N 45°32' W 122°41'0 0.0
2018-Feb-17 18:00N 45°32' W 122°41'0 0.0
2018-Feb-17 17:30N 45°32' W 122°41'0 0.0
2018-Feb-17 17:00N 45°32' W 122°41'0 0.0
2018-Feb-17 16:30N 45°32' W 122°41'0 0.0
2018-Feb-17 16:00N 45°32' W 122°41'0 0.0
2018-Feb-17 15:30N 45°32' W 122°41'0 0.0
2018-Feb-17 15:00N 45°32' W 122°41'0 0.0
2018-Feb-17 14:30N 45°32' W 122°41'0 0.0
2018-Feb-17 14:00N 45°32' W 122°41'0 0.0
2018-Feb-17 13:30N 45°32' W 122°41'0 0.0
2018-Feb-17 13:00N 45°32' W 122°41'0 0.0
2018-Feb-17 12:30N 45°32' W 122°41'0 0.0
2018-Feb-17 12:00N 45°32' W 122°41'0 0.0
2018-Feb-17 11:30N 45°32' W 122°41'0 0.0
2018-Feb-17 11:00N 45°32' W 122°41'0 0.0
2018-Feb-17 10:30N 45°32' W 122°41'0 0.0
2018-Feb-17 10:00N 45°32' W 122°41'0 0.0
2018-Feb-17 09:30N 45°32' W 122°41'0 0.0
2018-Feb-17 09:00N 45°32' W 122°41'0 0.0
2018-Feb-17 08:30N 45°32' W 122°41'0 0.0
2018-Feb-17 08:00N 45°32' W 122°41'0 0.0
2018-Feb-17 07:30N 45°32' W 122°41'0 0.0
2018-Feb-17 07:00N 45°32' W 122°41'0 0.0
2018-Feb-17 06:30N 45°32' W 122°41'0 0.0
2018-Feb-17 06:00N 45°32' W 122°41'0 0.0
2018-Feb-17 05:30N 45°32' W 122°41'0 0.0
2018-Feb-17 05:00N 45°32' W 122°41'0 0.0
2018-Feb-17 04:30N 45°32' W 122°41'0 0.0
2018-Feb-17 04:00N 45°32' W 122°41'0 0.0
2018-Feb-17 03:30N 45°32' W 122°41'0 0.0
2018-Feb-17 03:00N 45°32' W 122°41'0 0.0
2018-Feb-17 02:30N 45°32' W 122°41'0 0.0
2018-Feb-17 02:00N 45°32' W 122°41'0 0.0
2018-Feb-17 01:30N 45°32' W 122°41'0 0.0
2018-Feb-17 01:00N 45°32' W 122°41'0 0.0
2018-Feb-17 00:30N 45°32' W 122°41'0 0.0
2018-Feb-17 00:00N 45°32' W 122°41'0 0.0
2018-Feb-16 23:30N 45°32' W 122°41'0 0.0
2018-Feb-16 23:00N 45°32' W 122°41'0 0.0
2018-Feb-16 22:30N 45°32' W 122°41'0 0.0
2018-Feb-16 22:00N 45°32' W 122°41'0 0.0
2018-Feb-16 21:30N 45°32' W 122°41'0 0.0
2018-Feb-16 21:00N 45°32' W 122°41'0 0.0
2018-Feb-16 20:30N 45°32' W 122°41'0 0.0
2018-Feb-16 20:00N 45°32' W 122°41'0 0.0
2018-Feb-16 19:30N 45°32' W 122°41'0 0.0
2018-Feb-16 19:00N 45°32' W 122°41'0 0.0
2018-Feb-16 18:30N 45°32' W 122°41'0 0.0
2018-Feb-16 18:00N 45°32' W 122°41'0 0.0
2018-Feb-16 17:30N 45°32' W 122°41'0 0.0
2018-Feb-16 17:00N 45°32' W 122°41'0 0.0
2018-Feb-16 16:24N 45°32' W 122°41'0 0.0
2018-Feb-16 16:00N 45°32' W 122°41'0 0.0
2018-Feb-16 15:30N 45°32' W 122°41'0 0.0
2018-Feb-16 15:00N 45°32' W 122°41'0 0.0
2018-Feb-16 14:30N 45°32' W 122°41'0 0.0
2018-Feb-16 14:00N 45°32' W 122°41'0 0.0
2018-Feb-16 13:30N 45°32' W 122°41'0 0.0
2018-Feb-16 13:00N 45°32' W 122°41'0 0.0
2018-Feb-16 12:30N 45°32' W 122°41'0 0.0
2018-Feb-16 12:00N 45°32' W 122°41'0 0.0
2018-Feb-16 11:30N 45°32' W 122°41'0 0.0
2018-Feb-16 11:00N 45°32' W 122°41'0 0.0
2018-Feb-16 10:30N 45°32' W 122°41'0 0.0
2018-Feb-16 10:00N 45°32' W 122°41'0 0.0
2018-Feb-16 09:30N 45°32' W 122°41'0 0.0
2018-Feb-16 09:00N 45°32' W 122°41'0 0.0
2018-Feb-16 08:30N 45°32' W 122°41'0 0.0
2018-Feb-16 08:00N 45°32' W 122°41'0 0.0
2018-Feb-16 07:30N 45°32' W 122°41'0 0.0
2018-Feb-16 07:00N 45°32' W 122°41'0 0.0
2018-Feb-16 06:30N 45°32' W 122°41'0 0.0
2018-Feb-16 06:00N 45°32' W 122°41'0 0.0
2018-Feb-16 05:30N 45°32' W 122°41'0 0.0
2018-Feb-16 05:00N 45°32' W 122°41'0 0.0
2018-Feb-16 04:30N 45°32' W 122°41'0 0.0
2018-Feb-16 04:00N 45°32' W 122°41'0 0.0
2018-Feb-16 03:30N 45°32' W 122°41'0 0.0
2018-Feb-16 03:00N 45°32' W 122°41'0 0.0
2018-Feb-16 02:30N 45°32' W 122°41'0 0.0
2018-Feb-16 02:00N 45°32' W 122°41'0 0.0
2018-Feb-16 01:30N 45°32' W 122°41'0 0.0
2018-Feb-16 01:00N 45°32' W 122°41'0 0.0
2018-Feb-16 00:30N 45°32' W 122°41'0 0.0
2018-Feb-16 00:00N 45°32' W 122°41'0 0.0
2018-Feb-15 23:30N 45°32' W 122°41'0 0.0
2018-Feb-15 23:00N 45°32' W 122°41'0 0.0
2018-Feb-15 22:30N 45°32' W 122°41'0 0.0
2018-Feb-15 22:00N 45°32' W 122°41'0 0.0
2018-Feb-15 21:30N 45°32' W 122°41'0 0.0
2018-Feb-15 21:00N 45°32' W 122°41'0 0.0
2018-Feb-15 20:30N 45°32' W 122°41'0 0.0
2018-Feb-15 20:00N 45°32' W 122°41'0 0.0
2018-Feb-15 19:30N 45°32' W 122°41'0 0.0
2018-Feb-15 19:00N 45°32' W 122°41'0 0.0
2018-Feb-15 18:30N 45°32' W 122°41'0 0.0
2018-Feb-15 18:00N 45°32' W 122°41'0 0.0
2018-Feb-15 17:30N 45°32' W 122°41'0 0.0
2018-Feb-15 17:00N 45°32' W 122°41'0 0.0
2018-Feb-15 16:30N 45°32' W 122°41'0 0.0
2018-Feb-15 16:00N 45°32' W 122°41'0 0.0
2018-Feb-15 15:30N 45°32' W 122°41'0 0.0
2018-Feb-15 15:00N 45°32' W 122°41'0 0.0
2018-Feb-15 14:30N 45°32' W 122°41'0 0.0
2018-Feb-15 14:00N 45°32' W 122°41'0 0.0
2018-Feb-15 13:30N 45°32' W 122°41'0 0.0
2018-Feb-15 13:00N 45°32' W 122°41'0 0.0
2018-Feb-15 12:30N 45°32' W 122°41'0 0.0
2018-Feb-15 12:00N 45°32' W 122°41'0 0.0
2018-Feb-15 11:30N 45°32' W 122°41'0 0.0
2018-Feb-15 11:00N 45°32' W 122°41'0 0.0
2018-Feb-15 10:30N 45°32' W 122°41'0 0.0
2018-Feb-15 10:00N 45°32' W 122°41'0 0.0
2018-Feb-15 09:30N 45°32' W 122°41'0 0.0
2018-Feb-15 09:00N 45°32' W 122°41'0 0.0
2018-Feb-15 08:30N 45°32' W 122°41'0 0.0
2018-Feb-15 07:57N 45°32' W 122°41'0 0.0
2018-Feb-15 07:30N 45°32' W 122°41'0 0.0
2018-Feb-15 07:00N 45°32' W 122°41'0 0.0
2018-Feb-15 06:30N 45°32' W 122°41'0 0.0
2018-Feb-15 06:00N 45°32' W 122°41'0 0.0
2018-Feb-15 05:30N 45°32' W 122°41'0 0.0
2018-Feb-15 05:00N 45°32' W 122°41'0 0.0
2018-Feb-15 04:30N 45°32' W 122°41'0 0.0
2018-Feb-15 04:00N 45°32' W 122°41'0 0.0
2018-Feb-15 03:30N 45°32' W 122°41'0 0.0
2018-Feb-15 03:00N 45°32' W 122°41'0 0.0
2018-Feb-15 02:30N 45°32' W 122°41'0 0.0
2018-Feb-15 02:00N 45°32' W 122°41'0 0.0
2018-Feb-15 01:30N 45°32' W 122°41'0 0.0
2018-Feb-15 01:00N 45°32' W 122°41'0 0.0
2018-Feb-15 00:30N 45°32' W 122°41'0 0.0
2018-Feb-14 23:59N 45°32' W 122°41'0 0.0
2018-Feb-14 23:30N 45°32' W 122°41'0 0.0
2018-Feb-14 23:00N 45°32' W 122°41'0 0.0
2018-Feb-14 22:30N 45°32' W 122°41'0 0.0
2018-Feb-14 22:00N 45°32' W 122°41'0 0.0
2018-Feb-14 21:30N 45°32' W 122°41'0 0.0
2018-Feb-14 20:59N 45°32' W 122°41'0 0.0
2018-Feb-14 20:30N 45°32' W 122°41'0 0.0
2018-Feb-14 20:00N 45°32' W 122°41'0 0.0
2018-Feb-14 19:30N 45°32' W 122°41'0 0.0
2018-Feb-14 19:00N 45°32' W 122°41'0 0.0
2018-Feb-14 18:30N 45°32' W 122°41'0 0.0
2018-Feb-14 18:00N 45°32' W 122°41'0 0.0
2018-Feb-14 17:30N 45°32' W 122°41'0 0.0
2018-Feb-14 17:00N 45°32' W 122°41'0 0.0
2018-Feb-14 16:30N 45°32' W 122°41'0 0.0
2018-Feb-14 16:00N 45°32' W 122°41'0 0.0
2018-Feb-14 15:30N 45°32' W 122°41'0 0.0
2018-Feb-14 15:00N 45°32' W 122°41'0 0.0
2018-Feb-14 14:30N 45°32' W 122°41'0 0.0
2018-Feb-14 14:00N 45°32' W 122°41'0 0.0
2018-Feb-14 13:30N 45°32' W 122°41'0 0.0
2018-Feb-14 13:00N 45°32' W 122°41'0 0.0
2018-Feb-14 12:30N 45°32' W 122°41'0 0.0
2018-Feb-14 12:00N 45°32' W 122°41'0 0.0
2018-Feb-14 11:30N 45°32' W 122°41'0 0.0
2018-Feb-14 11:00N 45°32' W 122°41'0 0.0
2018-Feb-14 10:30N 45°32' W 122°41'0 0.0
2018-Feb-14 09:59N 45°32' W 122°41'0 0.0
2018-Feb-14 09:29N 45°32' W 122°41'0 0.0
2018-Feb-14 09:00N 45°32' W 122°41'0 0.0
2018-Feb-14 08:30N 45°32' W 122°41'0 0.0
2018-Feb-14 07:59N 45°32' W 122°41'0 0.0
2018-Feb-14 07:30N 45°32' W 122°41'0 0.0
2018-Feb-14 07:00N 45°32' W 122°41'0 0.0
2018-Feb-14 06:29N 45°32' W 122°41'0 0.0
2018-Feb-14 05:59N 45°32' W 122°41'0 0.0
2018-Feb-14 05:29N 45°32' W 122°41'0 0.0
2018-Feb-14 04:59N 45°32' W 122°41'0 0.0
2018-Feb-14 04:30N 45°32' W 122°41'0 0.0
2018-Feb-14 03:59N 45°32' W 122°41'0 0.0
2018-Feb-14 03:29N 45°32' W 122°41'0 0.0
2018-Feb-14 03:00N 45°32' W 122°41'0 0.0
2018-Feb-14 02:30N 45°32' W 122°41'0 0.0
2018-Feb-14 01:59N 45°32' W 122°41'0 0.0
2018-Feb-14 01:29N 45°32' W 122°41'0 0.0
2018-Feb-14 00:59N 45°32' W 122°41'0 0.0
2018-Feb-14 00:30N 45°32' W 122°41'0 0.0
2018-Feb-14 00:00N 45°32' W 122°41'0 0.0
2018-Feb-13 23:30N 45°32' W 122°41'0 0.0
2018-Feb-13 22:59N 45°32' W 122°41'0 0.0
2018-Feb-13 22:30N 45°32' W 122°41'0 0.0
2018-Feb-13 21:59N 45°32' W 122°41'0 0.0
2018-Feb-13 21:29N 45°32' W 122°41'0 0.0
2018-Feb-13 20:59N 45°32' W 122°41'0 0.0
2018-Feb-13 20:29N 45°32' W 122°41'0 0.0
2018-Feb-13 19:59N 45°32' W 122°41'0 0.0
2018-Feb-13 19:29N 45°32' W 122°41'0 0.0
2018-Feb-13 18:56N 45°32' W 122°41'0 0.0
2018-Feb-13 18:29N 45°32' W 122°41'0 0.0
2018-Feb-13 17:59N 45°32' W 122°41'0 0.0
2018-Feb-13 17:29N 45°32' W 122°41'0 0.0
2018-Feb-13 16:59N 45°32' W 122°41'0 0.0
2018-Feb-13 16:29N 45°32' W 122°41'0 0.0
2018-Feb-13 15:59N 45°32' W 122°41'0 0.0
2018-Feb-13 15:29N 45°32' W 122°41'0 0.0
2018-Feb-13 14:59N 45°32' W 122°41'0 0.0
2018-Feb-13 14:26N 45°32' W 122°41'0 0.0
2018-Feb-13 13:59N 45°32' W 122°41'0 0.0
2018-Feb-13 13:29N 45°32' W 122°41'0 0.0
2018-Feb-13 12:59N 45°32' W 122°41'0 0.0
2018-Feb-13 12:30N 45°32' W 122°41'0 0.0
2018-Feb-13 11:59N 45°32' W 122°41'0 0.0
2018-Feb-13 11:29N 45°32' W 122°41'0 0.0
2018-Feb-13 10:59N 45°32' W 122°41'0 0.0
2018-Feb-13 10:29N 45°32' W 122°41'0 0.0
2018-Feb-13 09:59N 45°32' W 122°41'0 0.0
2018-Feb-13 09:29N 45°32' W 122°41'0 0.0
2018-Feb-13 08:59N 45°32' W 122°41'0 0.0
2018-Feb-13 08:29N 45°32' W 122°41'0 0.0
2018-Feb-13 07:59N 45°32' W 122°41'0 0.0
2018-Feb-13 07:29N 45°32' W 122°41'0 0.0
2018-Feb-13 06:57N 45°32' W 122°41'0 0.0
2018-Feb-13 06:29N 45°32' W 122°41'0 0.0
2018-Feb-13 05:59N 45°32' W 122°41'0 0.0
2018-Feb-13 05:29N 45°32' W 122°41'0 0.0
2018-Feb-13 05:00N 45°32' W 122°41'0 0.0
2018-Feb-13 04:29N 45°32' W 122°41'0 0.0
2018-Feb-13 03:59N 45°32' W 122°41'0 0.0
2018-Feb-13 03:29N 45°32' W 122°41'0 0.0
2018-Feb-13 02:59N 45°32' W 122°41'0 0.0
2018-Feb-13 02:30N 45°32' W 122°41'  
Track history (hours):
 
Tides and Currents Weather Stations Pressure Air Temp Water Temp Dewpoint Dewpoint Depression Visibility Wind Speed Wind Dir Waves Ship Positions

Ikan Jebuh

Last reported at 2018-Feb-23 02:29 UTC. Time now 2018-Feb-23 02:45 UTC.
Position N 48°57' W 123°37'.

Length 177 m; draft 6.9 m.

Type: Cargo ship. MMSI: 354953000.

Date/timePositionNaut miles runAvg speedWind from/ knotsBaromVisibWave heightAir tempDewpointWater temp
2018-Feb-23 02:29N 48°57' W 123°37'0 0.0
2018-Feb-23 01:59N 48°57' W 123°37'0 0.0
2018-Feb-23 01:30N 48°57' W 123°37'1 2.0
2018-Feb-23 01:00N 48°57' W 123°35'4 8.7
2018-Feb-23 00:30N 48°55' W 123°30'510.1
2018-Feb-23 00:00N 48°51' W 123°24'611.3
2018-Feb-22 23:30N 48°47' W 123°20'713.9
2018-Feb-22 23:00N 48°40' W 123°15'611.4
2018-Feb-22 22:30N 48°35' W 123°13'510.7
2018-Feb-22 22:00N 48°30' W 123°11'510.0
2018-Feb-22 21:30N 48°25' W 123°11'611.0
2018-Feb-22 21:00N 48°22' W 123°19'16 8.5
2018-Feb-22 19:04N 48°14' W 123°40'410.4
2018-Feb-22 18:42N 48°13' W 123°45'410.6
2018-Feb-22 18:19N 48°14' W 123°52'410.4
2018-Feb-22 17:56N 48°14' W 123°57'4 9.7
2018-Feb-22 17:30N 48°16' W 124°03'510.7
2018-Feb-22 17:00N 48°18' W 124°11'511.0
2018-Feb-22 16:30N 48°20' W 124°18'510.9
2018-Feb-22 16:00N 48°23' W 124°25'611.1
2018-Feb-22 15:30N 48°25' W 124°33'611.0
2018-Feb-22 14:58N 48°28' W 124°41'510.6
2018-Feb-22 14:30N 48°28' W 124°48'510.8
2018-Feb-22 14:00N 48°28' W 124°57'510.1
2018-Feb-22 13:30N 48°28' W 125°04'611.2
2018-Feb-22 13:00N 48°28' W 125°13'611.3
2018-Feb-22 12:30N 48°29' W 125°21'511.0
2018-Feb-22 12:00N 48°29' W 125°29'510.3
2018-Feb-22 11:30N 48°29' W 125°37'510.1
2018-Feb-22 10:59N 48°28' W 125°45'510.3
2018-Feb-22 10:30N 48°28' W 125°52'510.7
2018-Feb-22 10:00N 48°29' W 126°01'511.0
2018-Feb-22 09:30N 48°28' W 126°09'510.6
2018-Feb-22 09:00N 48°29' W 126°17'140 5.5
2018-Feb-21 07:42N 46°13' W 125°27'311.8
2018-Feb-21 07:28N 46°13' W 125°23'1111.7
2018-Feb-21 06:32N 46°13' W 125°07'011.4
2018-Feb-21 06:30N 46°13' W 125°06'612.5
2018-Feb-21 06:00N 46°12' W 124°57'713.1
2018-Feb-21 05:30N 46°12' W 124°48'713.6
2018-Feb-21 05:00N 46°12' W 124°38'713.5
2018-Feb-21 04:30N 46°12' W 124°28'713.5
2018-Feb-21 04:00N 46°12' W 124°19'713.1
2018-Feb-21 03:30N 46°12' W 124°09'612.1
2018-Feb-21 03:01N 46°16' W 124°03'715.0
2018-Feb-21 02:31N 46°11' W 123°54'5 9.9
2018-Feb-21 02:00N 46°13' W 123°47'713.2
2018-Feb-21 01:30N 46°16' W 123°38'713.3
2018-Feb-21 01:01N 46°16' W 123°28'612.2
2018-Feb-21 00:31N 46°11' W 123°25'611.2
2018-Feb-21 00:00N 46°09' W 123°18'714.0
2018-Feb-20 23:31N 46°11' W 123°08'714.3
2018-Feb-20 23:00N 46°07' W 122°60'711.9
2018-Feb-20 22:23N 46°02' W 122°53'411.5
2018-Feb-20 22:00N 45°58' W 122°50'713.5
2018-Feb-20 21:30N 45°52' W 122°47'714.2
2018-Feb-20 21:00N 45°45' W 122°46'612.5
2018-Feb-20 20:30N 45°38' W 122°47'4 7.3
2018-Feb-20 20:01N 45°35' W 122°45'4 8.2
2018-Feb-20 19:30N 45°32' W 122°41'0 0.1
2018-Feb-20 18:33N 45°32' W 122°41'0 0.0
2018-Feb-20 18:30N 45°32' W 122°41'0 0.0
2018-Feb-20 17:57N 45°32' W 122°41'0 0.0
2018-Feb-20 17:30N 45°32' W 122°41'0 0.0
2018-Feb-20 17:00N 45°32' W 122°41'0 0.0
2018-Feb-20 16:24N 45°32' W 122°41'0 0.0
2018-Feb-20 15:57N 45°32' W 122°41'0 0.0
2018-Feb-20 15:24N 45°32' W 122°41'0 0.0
2018-Feb-20 14:57N 45°32' W 122°41'0 0.0
2018-Feb-20 14:30N 45°32' W 122°41'0 0.0
2018-Feb-20 13:57N 45°32' W 122°41'0 0.0
2018-Feb-20 13:30N 45°32' W 122°41'0 0.0
2018-Feb-20 12:57N 45°32' W 122°41'0 0.0
2018-Feb-20 12:30N 45°32' W 122°41'0 0.0
2018-Feb-20 11:57N 45°32' W 122°41'0 0.0
2018-Feb-20 11:18N 45°32' W 122°41'0 0.0
2018-Feb-20 11:00N 45°32' W 122°41'0 0.0
2018-Feb-20 10:27N 45°32' W 122°41'0 0.0
2018-Feb-20 10:00N 45°32' W 122°41'0 0.0
2018-Feb-20 09:24N 45°32' W 122°41'0 0.0
2018-Feb-20 09:00N 45°32' W 122°41'0 0.0
2018-Feb-20 08:27N 45°32' W 122°41'0 0.0
2018-Feb-20 08:00N 45°32' W 122°41'0 0.0
2018-Feb-20 07:24N 45°32' W 122°41'0 0.0
2018-Feb-20 07:00N 45°32' W 122°41'0 0.0
2018-Feb-20 06:30N 45°32' W 122°41'0 0.0
2018-Feb-20 06:00N 45°32' W 122°41'0 0.0
2018-Feb-20 05:30N 45°32' W 122°41'0 0.0
2018-Feb-20 05:00N 45°32' W 122°41'0 0.0
2018-Feb-20 04:18N 45°32' W 122°41'0 0.0
2018-Feb-20 03:57N 45°32' W 122°41'0 0.0
2018-Feb-20 03:30N 45°32' W 122°41'0 0.0
2018-Feb-20 03:00N 45°32' W 122°41'0 0.0
2018-Feb-20 02:30N 45°32' W 122°41'0 0.0
2018-Feb-20 01:51N 45°32' W 122°41'0 0.0
2018-Feb-20 01:24N 45°32' W 122°41'0 0.0
2018-Feb-20 01:00N 45°32' W 122°41'0 0.0
2018-Feb-20 00:27N 45°32' W 122°41'0 0.0
2018-Feb-20 00:00N 45°32' W 122°41'0 0.0
2018-Feb-19 23:30N 45°32' W 122°41'0 0.0
2018-Feb-19 22:57N 45°32' W 122°41'0 0.0
2018-Feb-19 22:30N 45°32' W 122°41'0 0.0
2018-Feb-19 22:00N 45°32' W 122°41'0 0.0
2018-Feb-19 21:24N 45°32' W 122°41'0 0.0
2018-Feb-19 21:00N 45°32' W 122°41'0 0.0
2018-Feb-19 20:30N 45°32' W 122°41'0 0.0
2018-Feb-19 20:00N 45°32' W 122°41'0 0.0
2018-Feb-19 18:54N 45°32' W 122°41'0 0.0
2018-Feb-19 18:09N 45°32' W 122°41'0 0.0
2018-Feb-19 17:51N 45°32' W 122°41'0 0.0
2018-Feb-19 17:30N 45°32' W 122°41'0 0.0
2018-Feb-19 16:57N 45°32' W 122°41'0 0.0
2018-Feb-19 16:24N 45°32' W 122°41'0 0.0
2018-Feb-19 15:57N 45°32' W 122°41'0 0.0
2018-Feb-19 15:27N 45°32' W 122°41'0 0.0
2018-Feb-19 14:57N 45°32' W 122°41'0 0.0
2018-Feb-19 14:27N 45°32' W 122°41'0 0.0
2018-Feb-19 14:00N 45°32' W 122°41'0 0.0
2018-Feb-19 13:27N 45°32' W 122°41'0 0.0
2018-Feb-19 13:00N 45°32' W 122°41'0 0.0
2018-Feb-19 12:30N 45°32' W 122°41'0 0.0
2018-Feb-19 12:00N 45°32' W 122°41'0 0.0
2018-Feb-19 10:45N 45°32' W 122°41'0 0.0
2018-Feb-19 10:21N 45°32' W 122°41'0 0.0
2018-Feb-19 09:57N 45°32' W 122°41'0 0.0
2018-Feb-19 09:03N 45°32' W 122°41'0 0.0
2018-Feb-19 09:00N 45°32' W 122°41'0 0.0
2018-Feb-19 08:06N 45°32' W 122°41'0 0.0
2018-Feb-19 07:30N 45°32' W 122°41'0 0.0
2018-Feb-19 06:30N 45°32' W 122°41'0 0.0
2018-Feb-19 05:57N 45°32' W 122°41'0 0.0
2018-Feb-19 05:18N 45°32' W 122°41'0 0.0
2018-Feb-19 05:00N 45°32' W 122°41'0 0.0
2018-Feb-19 04:27N 45°32' W 122°41'0 0.0
2018-Feb-19 03:57N 45°32' W 122°41'0 0.0
2018-Feb-19 03:30N 45°32' W 122°41'0 0.0
2018-Feb-19 03:00N 45°32' W 122°41'0 0.0
2018-Feb-19 02:30N 45°32' W 122°41'0 0.0
2018-Feb-19 01:51N 45°32' W 122°41'0 0.0
2018-Feb-19 01:27N 45°32' W 122°41'0 0.0
2018-Feb-19 01:00N 45°32' W 122°41'0 0.0
2018-Feb-19 00:30N 45°32' W 122°41'0 0.0
2018-Feb-19 00:00N 45°32' W 122°41'0 0.0
2018-Feb-18 23:27N 45°32' W 122°41'0 0.0
2018-Feb-18 23:00N 45°32' W 122°41'0 0.0
2018-Feb-18 22:27N 45°32' W 122°41'0 0.0
2018-Feb-18 22:00N 45°32' W 122°41'0 0.0
2018-Feb-18 21:27N 45°32' W 122°41'0 0.0
2018-Feb-18 21:00N 45°32' W 122°41'0 0.0
2018-Feb-18 20:30N 45°32' W 122°41'0 0.0
2018-Feb-18 20:00N 45°32' W 122°41'0 0.0
2018-Feb-18 19:21N 45°32' W 122°41'0 0.0
2018-Feb-18 19:00N 45°32' W 122°41'0 0.0
2018-Feb-18 18:30N 45°32' W 122°41'0 0.0
2018-Feb-18 17:57N 45°32' W 122°41'0 0.0
2018-Feb-18 17:27N 45°32' W 122°41'0 0.0
2018-Feb-18 16:57N 45°32' W 122°41'0 0.0
2018-Feb-18 16:30N 45°32' W 122°41'0 0.0
2018-Feb-18 16:00N 45°32' W 122°41'0 0.0
2018-Feb-18 15:30N 45°32' W 122°41'0 0.0
2018-Feb-18 15:00N 45°32' W 122°41'0 0.0
2018-Feb-18 14:30N 45°32' W 122°41'0 0.0
2018-Feb-18 14:00N 45°32' W 122°41'0 0.0
2018-Feb-18 13:30N 45°32' W 122°41'0 0.0
2018-Feb-18 13:00N 45°32' W 122°41'0 0.0
2018-Feb-18 12:30N 45°32' W 122°41'0 0.0
2018-Feb-18 12:00N 45°32' W 122°41'0 0.0
2018-Feb-18 11:27N 45°32' W 122°41'0 0.0
2018-Feb-18 11:00N 45°32' W 122°41'0 0.0
2018-Feb-18 10:30N 45°32' W 122°41'0 0.0
2018-Feb-18 09:48N 45°32' W 122°41'0 0.0
2018-Feb-18 09:27N 45°32' W 122°41'0 0.0
2018-Feb-18 08:57N 45°32' W 122°41'0 0.0
2018-Feb-18 08:24N 45°32' W 122°41'0 0.0
2018-Feb-18 07:51N 45°32' W 122°41'0 0.0
2018-Feb-18 07:27N 45°32' W 122°41'0 0.0
2018-Feb-18 06:51N 45°32' W 122°41'0 0.0
2018-Feb-18 06:30N 45°32' W 122°41'0 0.0
2018-Feb-18 06:00N 45°32' W 122°41'0 0.0
2018-Feb-18 05:30N 45°32' W 122°41'0 0.0
2018-Feb-18 04:57N 45°32' W 122°41'0 0.0
2018-Feb-18 04:27N 45°32' W 122°41'0 0.0
2018-Feb-18 04:00N 45°32' W 122°41'0 0.0
2018-Feb-18 03:24N 45°32' W 122°41'0 0.0
2018-Feb-18 02:57N 45°32' W 122°41'0 0.0
2018-Feb-18 02:30N 45°32' W 122°41'0 0.0
2018-Feb-18 01:57N 45°32' W 122°41'0 0.0
2018-Feb-18 01:30N 45°32' W 122°41'0 0.0
2018-Feb-18 00:57N 45°32' W 122°41'0 0.0
2018-Feb-18 00:09N 45°32' W 122°41'0 0.0
2018-Feb-17 23:48N 45°32' W 122°41'0 0.0
2018-Feb-17 23:30N 45°32' W 122°41'0 0.0
2018-Feb-17 23:00N 45°32' W 122°41'0 0.0
2018-Feb-17 22:30N 45°32' W 122°41'0 0.0
2018-Feb-17 22:00N 45°32' W 122°41'0 0.0
2018-Feb-17 21:30N 45°32' W 122°41'0 0.0
2018-Feb-17 21:00N 45°32' W 122°41'0 0.0
2018-Feb-17 20:30N 45°32' W 122°41'0 0.0
2018-Feb-17 20:00N 45°32' W 122°41'0 0.0
2018-Feb-17 19:30N 45°32' W 122°41'0 0.0
2018-Feb-17 19:00N 45°32' W 122°41'0 0.0
2018-Feb-17 18:30N 45°32' W 122°41'0 0.0
2018-Feb-17 18:00N 45°32' W 122°41'0 0.0
2018-Feb-17 17:30N 45°32' W 122°41'0 0.0
2018-Feb-17 17:00N 45°32' W 122°41'0 0.0
2018-Feb-17 16:30N 45°32' W 122°41'0 0.0
2018-Feb-17 16:00N 45°32' W 122°41'0 0.0
2018-Feb-17 15:30N 45°32' W 122°41'0 0.0
2018-Feb-17 15:00N 45°32' W 122°41'0 0.0
2018-Feb-17 14:30N 45°32' W 122°41'0 0.0
2018-Feb-17 14:00N 45°32' W 122°41'0 0.0
2018-Feb-17 13:30N 45°32' W 122°41'0 0.0
2018-Feb-17 13:00N 45°32' W 122°41'0 0.0
2018-Feb-17 12:30N 45°32' W 122°41'0 0.0
2018-Feb-17 12:00N 45°32' W 122°41'0 0.0
2018-Feb-17 11:30N 45°32' W 122°41'0 0.0
2018-Feb-17 11:00N 45°32' W 122°41'0 0.0
2018-Feb-17 10:30N 45°32' W 122°41'0 0.0
2018-Feb-17 10:00N 45°32' W 122°41'0 0.0
2018-Feb-17 09:30N 45°32' W 122°41'0 0.0
2018-Feb-17 09:00N 45°32' W 122°41'0 0.0
2018-Feb-17 08:30N 45°32' W 122°41'0 0.0
2018-Feb-17 08:00N 45°32' W 122°41'0 0.0
2018-Feb-17 07:30N 45°32' W 122°41'0 0.0
2018-Feb-17 07:00N 45°32' W 122°41'0 0.0
2018-Feb-17 06:30N 45°32' W 122°41'0 0.0
2018-Feb-17 06:00N 45°32' W 122°41'0 0.0
2018-Feb-17 05:30N 45°32' W 122°41'0 0.0
2018-Feb-17 05:00N 45°32' W 122°41'0 0.0
2018-Feb-17 04:30N 45°32' W 122°41'0 0.0
2018-Feb-17 04:00N 45°32' W 122°41'0 0.0
2018-Feb-17 03:30N 45°32' W 122°41'0 0.0
2018-Feb-17 03:00N 45°32' W 122°41'0 0.0
2018-Feb-17 02:30N 45°32' W 122°41'0 0.0
2018-Feb-17 02:00N 45°32' W 122°41'0 0.0
2018-Feb-17 01:30N 45°32' W 122°41'0 0.0
2018-Feb-17 01:00N 45°32' W 122°41'0 0.0
2018-Feb-17 00:30N 45°32' W 122°41'0 0.0
2018-Feb-17 00:00N 45°32' W 122°41'0 0.0
2018-Feb-16 23:30N 45°32' W 122°41'0 0.0
2018-Feb-16 23:00N 45°32' W 122°41'0 0.0
2018-Feb-16 22:30N 45°32' W 122°41'0 0.0
2018-Feb-16 22:00N 45°32' W 122°41'0 0.0
2018-Feb-16 21:30N 45°32' W 122°41'0 0.0
2018-Feb-16 21:00N 45°32' W 122°41'0 0.0
2018-Feb-16 20:30N 45°32' W 122°41'0 0.0
2018-Feb-16 20:00N 45°32' W 122°41'0 0.0
2018-Feb-16 19:30N 45°32' W 122°41'0 0.0
2018-Feb-16 19:00N 45°32' W 122°41'0 0.0
2018-Feb-16 18:30N 45°32' W 122°41'0 0.0
2018-Feb-16 18:00N 45°32' W 122°41'0 0.0
2018-Feb-16 17:30N 45°32' W 122°41'0 0.0
2018-Feb-16 17:00N 45°32' W 122°41'0 0.0
2018-Feb-16 16:24N 45°32' W 122°41'0 0.0
2018-Feb-16 16:00N 45°32' W 122°41'0 0.0
2018-Feb-16 15:30N 45°32' W 122°41'0 0.0
2018-Feb-16 15:00N 45°32' W 122°41'0 0.0
2018-Feb-16 14:30N 45°32' W 122°41'0 0.0
2018-Feb-16 14:00N 45°32' W 122°41'0 0.0
2018-Feb-16 13:30N 45°32' W 122°41'0 0.0
2018-Feb-16 13:00N 45°32' W 122°41'0 0.0
2018-Feb-16 12:30N 45°32' W 122°41'0 0.0
2018-Feb-16 12:00N 45°32' W 122°41'0 0.0
2018-Feb-16 11:30N 45°32' W 122°41'0 0.0
2018-Feb-16 11:00N 45°32' W 122°41'0 0.0
2018-Feb-16 10:30N 45°32' W 122°41'0 0.0
2018-Feb-16 10:00N 45°32' W 122°41'0 0.0
2018-Feb-16 09:30N 45°32' W 122°41'0 0.0
2018-Feb-16 09:00N 45°32' W 122°41'0 0.0
2018-Feb-16 08:30N 45°32' W 122°41'0 0.0
2018-Feb-16 08:00N 45°32' W 122°41'0 0.0
2018-Feb-16 07:30N 45°32' W 122°41'0 0.0
2018-Feb-16 07:00N 45°32' W 122°41'0 0.0
2018-Feb-16 06:30N 45°32' W 122°41'0 0.0
2018-Feb-16 06:00N 45°32' W 122°41'0 0.0
2018-Feb-16 05:30N 45°32' W 122°41'0 0.0
2018-Feb-16 05:00N 45°32' W 122°41'0 0.0
2018-Feb-16 04:30N 45°32' W 122°41'0 0.0
2018-Feb-16 04:00N 45°32' W 122°41'0 0.0
2018-Feb-16 03:30N 45°32' W 122°41'0 0.0
2018-Feb-16 03:00N 45°32' W 122°41'0 0.0
2018-Feb-16 02:30N 45°32' W 122°41'0 0.0
2018-Feb-16 02:00N 45°32' W 122°41'0 0.0
2018-Feb-16 01:30N 45°32' W 122°41'0 0.0
2018-Feb-16 01:00N 45°32' W 122°41'0 0.0
2018-Feb-16 00:30N 45°32' W 122°41'0 0.0
2018-Feb-16 00:00N 45°32' W 122°41'0 0.0
2018-Feb-15 23:30N 45°32' W 122°41'0 0.0
2018-Feb-15 23:00N 45°32' W 122°41'0 0.0
2018-Feb-15 22:30N 45°32' W 122°41'0 0.0
2018-Feb-15 22:00N 45°32' W 122°41'0 0.0
2018-Feb-15 21:30N 45°32' W 122°41'0 0.0
2018-Feb-15 21:00N 45°32' W 122°41'0 0.0
2018-Feb-15 20:30N 45°32' W 122°41'0 0.0
2018-Feb-15 20:00N 45°32' W 122°41'0 0.0
2018-Feb-15 19:30N 45°32' W 122°41'0 0.0
2018-Feb-15 19:00N 45°32' W 122°41'0 0.0
2018-Feb-15 18:30N 45°32' W 122°41'0 0.0
2018-Feb-15 18:00N 45°32' W 122°41'0 0.0
2018-Feb-15 17:30N 45°32' W 122°41'0 0.0
2018-Feb-15 17:00N 45°32' W 122°41'0 0.0
2018-Feb-15 16:30N 45°32' W 122°41'0 0.0
2018-Feb-15 16:00N 45°32' W 122°41'0 0.0
2018-Feb-15 15:30N 45°32' W 122°41'0 0.0
2018-Feb-15 15:00N 45°32' W 122°41'0 0.0
2018-Feb-15 14:30N 45°32' W 122°41'0 0.0
2018-Feb-15 14:00N 45°32' W 122°41'0 0.0
2018-Feb-15 13:30N 45°32' W 122°41'0 0.0
2018-Feb-15 13:00N 45°32' W 122°41'0 0.0
2018-Feb-15 12:30N 45°32' W 122°41'0 0.0
2018-Feb-15 12:00N 45°32' W 122°41'0 0.0
2018-Feb-15 11:30N 45°32' W 122°41'0 0.0
2018-Feb-15 11:00N 45°32' W 122°41'0 0.0
2018-Feb-15 10:30N 45°32' W 122°41'0 0.0
2018-Feb-15 10:00N 45°32' W 122°41'0 0.0
2018-Feb-15 09:30N 45°32' W 122°41'0 0.0
2018-Feb-15 09:00N 45°32' W 122°41'0 0.0
2018-Feb-15 08:30N 45°32' W 122°41'0 0.0
2018-Feb-15 07:57N 45°32' W 122°41'0 0.0
2018-Feb-15 07:30N 45°32' W 122°41'0 0.0
2018-Feb-15 07:00N 45°32' W 122°41'0 0.0
2018-Feb-15 06:30N 45°32' W 122°41'0 0.0
2018-Feb-15 06:00N 45°32' W 122°41'0 0.0
2018-Feb-15 05:30N 45°32' W 122°41'0 0.0
2018-Feb-15 05:00N 45°32' W 122°41'0 0.0
2018-Feb-15 04:30N 45°32' W 122°41'0 0.0
2018-Feb-15 04:00N 45°32' W 122°41'0 0.0
2018-Feb-15 03:30N 45°32' W 122°41'0 0.0
2018-Feb-15 03:00N 45°32' W 122°41'0 0.0
2018-Feb-15 02:30N 45°32' W 122°41'0 0.0
2018-Feb-15 02:00N 45°32' W 122°41'0 0.0
2018-Feb-15 01:30N 45°32' W 122°41'0 0.0
2018-Feb-15 01:00N 45°32' W 122°41'0 0.0
2018-Feb-15 00:30N 45°32' W 122°41'0 0.0
2018-Feb-14 23:59N 45°32' W 122°41'0 0.0
2018-Feb-14 23:30N 45°32' W 122°41'0 0.0
2018-Feb-14 23:00N 45°32' W 122°41'0 0.0
2018-Feb-14 22:30N 45°32' W 122°41'0 0.0
2018-Feb-14 22:00N 45°32' W 122°41'0 0.0
2018-Feb-14 21:30N 45°32' W 122°41'0 0.0
2018-Feb-14 20:59N 45°32' W 122°41'0 0.0
2018-Feb-14 20:30N 45°32' W 122°41'0 0.0
2018-Feb-14 20:00N 45°32' W 122°41'0 0.0
2018-Feb-14 19:30N 45°32' W 122°41'0 0.0
2018-Feb-14 19:00N 45°32' W 122°41'0 0.0
2018-Feb-14 18:30N 45°32' W 122°41'0 0.0
2018-Feb-14 18:00N 45°32' W 122°41'0 0.0
2018-Feb-14 17:30N 45°32' W 122°41'0 0.0
2018-Feb-14 17:00N 45°32' W 122°41'0 0.0
2018-Feb-14 16:30N 45°32' W 122°41'0 0.0
2018-Feb-14 16:00N 45°32' W 122°41'0 0.0
2018-Feb-14 15:30N 45°32' W 122°41'0 0.0
2018-Feb-14 15:00N 45°32' W 122°41'0 0.0
2018-Feb-14 14:30N 45°32' W 122°41'0 0.0
2018-Feb-14 14:00N 45°32' W 122°41'0 0.0
2018-Feb-14 13:30N 45°32' W 122°41'0 0.0
2018-Feb-14 13:00N 45°32' W 122°41'0 0.0
2018-Feb-14 12:30N 45°32' W 122°41'0 0.0
2018-Feb-14 12:00N 45°32' W 122°41'0 0.0
2018-Feb-14 11:30N 45°32' W 122°41'0 0.0
2018-Feb-14 11:00N 45°32' W 122°41'0 0.0
2018-Feb-14 10:30N 45°32' W 122°41'0 0.0
2018-Feb-14 09:59N 45°32' W 122°41'0 0.0
2018-Feb-14 09:29N 45°32' W 122°41'0 0.0
2018-Feb-14 09:00N 45°32' W 122°41'0 0.0
2018-Feb-14 08:30N 45°32' W 122°41'0 0.0
2018-Feb-14 07:59N 45°32' W 122°41'0 0.0
2018-Feb-14 07:30N 45°32' W 122°41'0 0.0
2018-Feb-14 07:00N 45°32' W 122°41'0 0.0
2018-Feb-14 06:29N 45°32' W 122°41'0 0.0
2018-Feb-14 05:59N 45°32' W 122°41'0 0.0
2018-Feb-14 05:29N 45°32' W 122°41'0 0.0
2018-Feb-14 04:59N 45°32' W 122°41'0 0.0
2018-Feb-14 04:30N 45°32' W 122°41'0 0.0
2018-Feb-14 03:59N 45°32' W 122°41'0 0.0
2018-Feb-14 03:29N 45°32' W 122°41'0 0.0
2018-Feb-14 03:00N 45°32' W 122°41'0 0.0
2018-Feb-14 02:30N 45°32' W 122°41'0 0.0
2018-Feb-14 01:59N 45°32' W 122°41'0 0.0
2018-Feb-14 01:29N 45°32' W 122°41'0 0.0
2018-Feb-14 00:59N 45°32' W 122°41'0 0.0
2018-Feb-14 00:30N 45°32' W 122°41'0 0.0
2018-Feb-14 00:00N 45°32' W 122°41'0 0.0
2018-Feb-13 23:30N 45°32' W 122°41'0 0.0
2018-Feb-13 22:59N 45°32' W 122°41'0 0.0
2018-Feb-13 22:30N 45°32' W 122°41'0 0.0
2018-Feb-13 21:59N 45°32' W 122°41'0 0.0
2018-Feb-13 21:29N 45°32' W 122°41'0 0.0
2018-Feb-13 20:59N 45°32' W 122°41'0 0.0
2018-Feb-13 20:29N 45°32' W 122°41'0 0.0
2018-Feb-13 19:59N 45°32' W 122°41'0 0.0
2018-Feb-13 19:29N 45°32' W 122°41'0 0.0
2018-Feb-13 18:56N 45°32' W 122°41'0 0.0
2018-Feb-13 18:29N 45°32' W 122°41'0 0.0
2018-Feb-13 17:59N 45°32' W 122°41'0 0.0
2018-Feb-13 17:29N 45°32' W 122°41'0 0.0
2018-Feb-13 16:59N 45°32' W 122°41'0 0.0
2018-Feb-13 16:29N 45°32' W 122°41'0 0.0
2018-Feb-13 15:59N 45°32' W 122°41'0 0.0
2018-Feb-13 15:29N 45°32' W 122°41'0 0.0
2018-Feb-13 14:59N 45°32' W 122°41'0 0.0
2018-Feb-13 14:26N 45°32' W 122°41'0 0.0
2018-Feb-13 13:59N 45°32' W 122°41'0 0.0
2018-Feb-13 13:29N 45°32' W 122°41'0 0.0
2018-Feb-13 12:59N 45°32' W 122°41'0 0.0
2018-Feb-13 12:30N 45°32' W 122°41'0 0.0
2018-Feb-13 11:59N 45°32' W 122°41'0 0.0
2018-Feb-13 11:29N 45°32' W 122°41'0 0.0
2018-Feb-13 10:59N 45°32' W 122°41'0 0.0
2018-Feb-13 10:29N 45°32' W 122°41'0 0.0
2018-Feb-13 09:59N 45°32' W 122°41'0 0.0
2018-Feb-13 09:29N 45°32' W 122°41'0 0.0
2018-Feb-13 08:59N 45°32' W 122°41'0 0.0
2018-Feb-13 08:29N 45°32' W 122°41'0 0.0
2018-Feb-13 07:59N 45°32' W 122°41'0 0.0
2018-Feb-13 07:29N 45°32' W 122°41'0 0.0
2018-Feb-13 06:57N 45°32' W 122°41'0 0.0
2018-Feb-13 06:29N 45°32' W 122°41'0 0.0
2018-Feb-13 05:59N 45°32' W 122°41'0 0.0
2018-Feb-13 05:29N 45°32' W 122°41'0 0.0
2018-Feb-13 05:00N 45°32' W 122°41'0 0.0
2018-Feb-13 04:29N 45°32' W 122°41'0 0.0
2018-Feb-13 03:59N 45°32' W 122°41'0 0.0
2018-Feb-13 03:29N 45°32' W 122°41'0 0.0
2018-Feb-13 02:59N 45°32' W 122°41'0 0.0
2018-Feb-13 02:30N 45°32' W 122°41'  

Dump ship's entire track history